createdAt,value
2018-11-06T00:01:36.464Z,97355.94
2018-11-06T00:04:06.587Z,97359.31
2018-11-06T00:06:36.504Z,97361.42
2018-11-06T00:09:23.118Z,97366.38
2018-11-06T00:14:35.533Z,97356.61
2018-11-06T00:17:06.166Z,97354.78
2018-11-06T00:19:35.881Z,97353.09
2018-11-06T00:22:06.364Z,97355.66
2018-11-06T00:24:36.725Z,97348.18
2018-11-06T00:27:07.300Z,97352.67
2018-11-06T00:29:37.173Z,97345.58
2018-11-06T00:32:07.010Z,97333.88
2018-11-06T00:34:36.751Z,97345.62
2018-11-06T00:37:06.960Z,97347.55
2018-11-06T00:39:46.151Z,97346.99
2018-11-06T00:42:16.211Z,97349.02
2018-11-06T00:44:45.979Z,97345.30
2018-11-06T00:47:15.723Z,97347.21
2018-11-06T00:49:59.537Z,97350.20
2018-11-06T00:52:30.015Z,97341.86
2018-11-06T00:54:59.976Z,97337.34
2018-11-06T00:57:30.292Z,97331.86
2018-11-06T01:00:00.066Z,97340.48
2018-11-06T01:02:29.831Z,97339.26
2018-11-06T01:04:59.938Z,97335.92
2018-11-06T01:07:29.764Z,97336.49
2018-11-06T01:10:08.240Z,97328.88
2018-11-06T01:12:39.873Z,97325.92
2018-11-06T01:15:11.819Z,97327.45
2018-11-06T01:17:42.341Z,97332.08
2018-11-06T01:20:15.401Z,97335.47
2018-11-06T01:22:45.407Z,97326.63
2018-11-06T01:25:15.956Z,97324.58
2018-11-06T01:27:45.863Z,97328.93
2018-11-06T01:30:18.502Z,97323.95
2018-11-06T01:32:48.611Z,97322.92
2018-11-06T01:35:18.695Z,97329.36
2018-11-06T01:37:50.871Z,97327.52
2018-11-06T01:40:20.596Z,97324.85
2018-11-06T01:42:50.388Z,97325.93
2018-11-06T01:45:20.385Z,97330.66
2018-11-06T01:47:51.457Z,97326.15
2018-11-06T01:50:21.150Z,97328.64
2018-11-06T01:52:51.030Z,97329.03
2018-11-06T01:55:20.888Z,97326.72
2018-11-06T01:57:50.626Z,97327.13
2018-11-06T02:00:20.396Z,97326.11
2018-11-06T02:02:50.450Z,97325.38
2018-11-06T02:05:20.197Z,97321.25
2018-11-06T02:07:50.357Z,97314.12
2018-11-06T02:10:20.125Z,97317.68
2018-11-06T02:12:49.840Z,97317.92
2018-11-06T02:15:19.606Z,97320.06
2018-11-06T02:17:49.756Z,97314.00
2018-11-06T02:20:19.750Z,97313.67
2018-11-06T02:22:49.647Z,97304.30
2018-11-06T02:25:19.464Z,97315.21
2018-11-06T02:27:49.582Z,97313.69
2018-11-06T02:30:19.607Z,97309.73
2018-11-06T02:32:49.427Z,97303.94
2018-11-06T02:35:19.229Z,97304.31
2018-11-06T02:37:49.284Z,97300.75
2018-11-06T02:40:19.097Z,97300.92
2018-11-06T02:42:48.926Z,97291.02
2018-11-06T02:45:18.801Z,97294.60
2018-11-06T02:47:48.541Z,97296.75
2018-11-06T02:50:18.481Z,97304.77
2018-11-06T02:52:48.744Z,97299.86
2018-11-06T02:55:18.438Z,97302.74
2018-11-06T02:57:48.949Z,97306.80
2018-11-06T03:00:18.884Z,97310.86
2018-11-06T03:02:49.934Z,97307.58
2018-11-06T03:05:19.712Z,97311.98
2018-11-06T03:07:49.462Z,97315.03
2018-11-06T03:10:43.705Z,97309.11
2018-11-06T03:13:13.821Z,97305.97
2018-11-06T03:16:43.452Z,97311.15
2018-11-06T03:19:13.354Z,97304.66
2018-11-06T03:21:43.117Z,97306.73
2018-11-06T03:24:12.969Z,97304.59
2018-11-06T03:26:43.071Z,97312.09
2018-11-06T03:29:12.933Z,97305.77
2018-11-06T03:31:42.693Z,97308.54
2018-11-06T03:34:12.528Z,97312.88
2018-11-06T03:36:42.580Z,97312.31
2018-11-06T03:39:12.590Z,97306.44
2018-11-06T03:41:42.471Z,97305.89
2018-11-06T03:44:12.935Z,97304.04
2018-11-06T03:46:42.684Z,97305.89
2018-11-06T03:49:12.585Z,97320.26
2018-11-06T03:51:43.931Z,97324.95
2018-11-06T03:54:13.842Z,97324.21
2018-11-06T03:56:43.707Z,97321.95
2018-11-06T03:59:13.453Z,97322.44
2018-11-06T04:01:43.159Z,97324.78
2018-11-06T04:04:13.130Z,97323.09
2018-11-06T04:06:43.504Z,97312.85
2018-11-06T04:09:13.909Z,97321.48
2018-11-06T04:11:43.788Z,97335.77
2018-11-06T04:14:13.606Z,97337.77
2018-11-06T04:16:43.731Z,97340.91
2018-11-06T04:19:13.482Z,97342.38
2018-11-06T04:22:00.064Z,97334.69
2018-11-06T04:24:29.930Z,97328.83
2018-11-06T04:26:59.752Z,97334.17
2018-11-06T04:29:29.595Z,97335.25
2018-11-06T04:31:59.683Z,97334.80
2018-11-06T04:34:29.479Z,97335.86
2018-11-06T04:37:00.206Z,97336.48
2018-11-06T04:39:29.942Z,97334.89
2018-11-06T04:41:59.674Z,97338.84
2018-11-06T04:44:29.563Z,97328.73
2018-11-06T04:47:00.726Z,97320.83
2018-11-06T04:49:30.498Z,97324.33
2018-11-06T04:52:00.343Z,97310.36
2018-11-06T04:54:30.152Z,97308.99
2018-11-06T04:56:59.912Z,97309.28
2018-11-06T04:59:29.617Z,97308.02
2018-11-06T05:01:59.765Z,97302.47
2018-11-06T05:04:29.932Z,97301.34
2018-11-06T05:07:01.331Z,97298.75
2018-11-06T05:09:31.792Z,97300.60
2018-11-06T05:12:01.796Z,97298.11
2018-11-06T05:14:53.264Z,97302.25
2018-11-06T05:17:24.245Z,97303.97
2018-11-06T05:20:10.702Z,97302.58
2018-11-06T05:22:40.809Z,97308.51
2018-11-06T05:25:43.531Z,97304.95
2018-11-06T05:28:13.724Z,97303.45
2018-11-06T05:30:43.634Z,97302.70
2018-11-06T05:33:15.963Z,97298.34
2018-11-06T05:35:45.692Z,97298.50
2018-11-06T05:38:15.416Z,97294.73
2018-11-06T05:40:57.335Z,97296.03
2018-11-06T05:43:27.238Z,97294.32
2018-11-06T05:45:57.291Z,97295.94
2018-11-06T05:48:27.080Z,97302.52
2018-11-06T05:50:56.814Z,97299.53
2018-11-06T05:53:28.335Z,97299.43
2018-11-06T05:55:58.103Z,97308.69
2018-11-06T05:58:39.164Z,97310.36
2018-11-06T06:01:08.957Z,97309.28
2018-11-06T06:03:38.733Z,97314.25
2018-11-06T06:06:08.495Z,97306.73
2018-11-06T06:08:38.572Z,97303.45
2018-11-06T06:11:41.641Z,97298.40
2018-11-06T06:14:12.179Z,97304.88
2018-11-06T06:16:48.197Z,97165.50
2018-11-06T06:19:18.244Z,97304.81
2018-11-06T06:27:55.771Z,97301.34
2018-11-06T06:30:26.681Z,97302.83
2018-11-06T06:32:57.504Z,97308.80
2018-11-06T06:35:27.359Z,97313.37
2018-11-06T06:37:58.089Z,97308.80
2018-11-06T06:40:28.555Z,97311.24
2018-11-06T06:46:35.265Z,97303.84
2018-11-06T06:49:07.066Z,97301.83
2018-11-06T06:51:36.991Z,97298.17
2018-11-06T06:54:07.963Z,97305.77
2018-11-06T06:56:38.121Z,97304.16
2018-11-06T07:02:25.912Z,97298.95
2018-11-06T07:05:07.734Z,97300.20
2018-11-06T07:07:38.984Z,97300.20
2018-11-06T07:13:03.118Z,97297.27
2018-11-06T07:15:33.008Z,97294.78
2018-11-06T07:18:03.382Z,97297.21
2018-11-06T07:20:43.083Z,97300.65
2018-11-06T07:23:12.979Z,97295.84
2018-11-06T07:25:48.397Z,97298.27
2018-11-06T07:28:18.345Z,97300.00
2018-11-06T07:30:48.313Z,97295.74
2018-11-06T07:33:18.269Z,97303.94
2018-11-06T07:35:51.910Z,97296.28
2018-11-06T07:38:22.093Z,97293.73
2018-11-06T07:40:51.944Z,97297.71
2018-11-06T07:43:21.722Z,97294.64
2018-11-06T07:45:51.601Z,97297.66
2018-11-06T07:48:21.439Z,97297.52
2018-11-06T07:50:51.260Z,97293.09
2018-11-06T07:53:21.181Z,97293.83
2018-11-06T07:55:51.075Z,97293.83
2018-11-06T07:58:20.871Z,97299.36
2018-11-06T08:00:50.694Z,97297.52
2018-11-06T08:03:25.266Z,97290.00
2018-11-06T08:05:55.837Z,97306.02
2018-11-06T08:08:26.965Z,97310.30
2018-11-06T08:10:56.775Z,97310.20
2018-11-06T08:13:26.995Z,97309.04
2018-11-06T08:15:56.919Z,97313.42
2018-11-06T08:18:26.749Z,97313.33
2018-11-06T08:20:56.770Z,97312.17
2018-11-06T08:35:15.402Z,97300.33
2018-11-06T08:37:45.630Z,97297.74
2018-11-06T08:40:47.677Z,97296.94
2018-11-06T08:43:18.726Z,97297.47
2018-11-06T08:45:50.034Z,97297.58
2018-11-06T08:51:04.851Z,97304.60
2018-11-06T08:53:35.521Z,97303.39
2018-11-06T08:56:05.873Z,97297.34
2018-11-06T08:58:35.784Z,97298.32
2018-11-06T09:01:06.869Z,97305.24
2018-11-06T09:03:38.011Z,97303.47
2018-11-06T09:06:08.081Z,97305.84
2018-11-06T09:08:38.539Z,97292.52
2018-11-06T09:11:08.430Z,97281.91
2018-11-06T09:13:38.706Z,97286.80
2018-11-06T09:16:08.616Z,97291.31
2018-11-06T09:18:38.734Z,97287.75
2018-11-06T09:22:04.942Z,97282.28
2018-11-06T09:24:35.400Z,97296.06
2018-11-06T09:27:05.284Z,97294.27
2018-11-06T09:29:35.526Z,97294.04
2018-11-06T09:32:06.038Z,97288.08
2018-11-06T09:34:37.569Z,97283.79
2018-11-06T09:37:07.521Z,97298.28
2018-11-06T09:39:38.700Z,97298.16
2018-11-06T09:42:08.537Z,97291.69
2018-11-06T09:44:38.399Z,97290.94
2018-11-06T09:47:08.446Z,97289.48
2018-11-06T09:49:39.773Z,97290.32
2018-11-06T09:52:09.643Z,97294.14
2018-11-06T09:54:39.794Z,97288.17
2018-11-06T09:57:09.815Z,97287.62
2018-11-06T09:59:39.886Z,97285.66
2018-11-06T10:02:09.744Z,97276.05
2018-11-06T10:04:39.578Z,97283.95
2018-11-06T10:07:09.947Z,97283.15
2018-11-06T10:09:39.966Z,97282.59
2018-11-06T10:12:17.883Z,97283.20
2018-11-06T10:18:18.744Z,97273.81
2018-11-06T10:21:02.231Z,97274.67
2018-11-06T10:23:32.582Z,97269.82
2018-11-06T10:26:02.516Z,97270.50
2018-11-06T10:28:34.652Z,97263.94
2018-11-06T10:31:20.054Z,97263.38
2018-11-06T10:33:50.602Z,97262.02
2018-11-06T10:36:24.323Z,97259.06
2018-11-06T10:38:54.209Z,97258.28
2018-11-06T10:41:23.993Z,97259.12
2018-11-06T10:43:54.698Z,97254.70
2018-11-06T10:46:25.490Z,97249.27
2018-11-06T10:48:55.473Z,97242.45
2018-11-06T10:51:25.506Z,97246.89
2018-11-06T10:53:55.741Z,97242.46
2018-11-06T10:56:25.909Z,97238.94
2018-11-06T10:58:56.214Z,97237.06
2018-11-06T11:02:44.512Z,97234.08
2018-11-06T11:05:14.485Z,97233.15
2018-11-06T11:07:46.744Z,97224.03
2018-11-06T11:10:16.554Z,97219.91
2018-11-06T11:12:46.448Z,97217.73
2018-11-06T11:15:16.409Z,97213.80
2018-11-06T11:17:46.329Z,97218.87
2018-11-06T11:20:16.313Z,97218.52
2018-11-06T11:22:47.388Z,97216.64
2018-11-06T11:25:17.485Z,97213.05
2018-11-06T11:27:47.596Z,97213.60
2018-11-06T11:30:17.697Z,97207.50
2018-11-06T11:32:48.512Z,97208.81
2018-11-06T11:35:18.432Z,97207.77
2018-11-06T11:37:48.605Z,97209.37
2018-11-06T11:40:18.395Z,97207.22
2018-11-06T11:42:48.236Z,97209.29
2018-11-06T11:45:18.092Z,97212.00
2018-11-06T11:47:47.932Z,97208.92
2018-11-06T11:50:17.745Z,97205.69
2018-11-06T11:53:10.100Z,97207.95
2018-11-06T11:55:39.925Z,97207.04
2018-11-06T11:58:10.080Z,97195.13
2018-11-06T12:00:40.573Z,97197.83
2018-11-06T12:03:10.438Z,97195.27
2018-11-06T12:05:41.731Z,97190.39
2018-11-06T12:08:11.935Z,97190.59
2018-11-06T12:10:41.903Z,97189.28
2018-11-06T12:13:12.067Z,97195.13
2018-11-06T12:15:43.167Z,97190.06
2018-11-06T12:18:13.103Z,97182.71
2018-11-06T12:20:43.608Z,97182.33
2018-11-06T12:23:14.901Z,97177.22
2018-11-06T12:25:44.888Z,97180.81
2018-11-06T12:28:14.620Z,97174.75
2018-11-06T12:30:44.495Z,97183.53
2018-11-06T12:33:14.358Z,97175.84
2018-11-06T12:35:44.279Z,97174.31
2018-11-06T12:38:14.328Z,97164.11
2018-11-06T12:40:44.397Z,97165.89
2018-11-06T12:43:14.430Z,97164.73
2018-11-06T12:45:44.247Z,97169.55
2018-11-06T12:48:14.091Z,97176.91
2018-11-06T12:50:45.302Z,97158.70
2018-11-06T12:53:15.118Z,97165.08
2018-11-06T12:55:44.967Z,97160.64
2018-11-06T12:58:14.789Z,97154.43
2018-11-06T13:00:44.642Z,97153.46
2018-11-06T13:03:14.445Z,97153.52
2018-11-06T13:05:44.481Z,97146.45
2018-11-06T13:08:15.028Z,97143.09
2018-11-06T13:10:44.923Z,97144.59
2018-11-06T13:13:14.679Z,97144.55
2018-11-06T13:15:45.504Z,97141.84
2018-11-06T13:18:15.397Z,97149.81
2018-11-06T13:20:45.197Z,97144.91
2018-11-06T13:23:14.997Z,97145.23
2018-11-06T13:25:44.920Z,97141.81
2018-11-06T13:28:14.763Z,97139.82
2018-11-06T13:30:44.645Z,97143.70
2018-11-06T13:33:14.697Z,97133.34
2018-11-06T13:35:44.496Z,97138.90
2018-11-06T13:38:14.327Z,97129.55
2018-11-06T13:40:44.136Z,97135.77
2018-11-06T13:43:14.236Z,97140.63
2018-11-06T13:45:44.803Z,97131.11
2018-11-06T13:48:15.412Z,97131.16
2018-11-06T13:50:45.495Z,97128.00
2018-11-06T13:53:15.718Z,97128.55
2018-11-06T13:55:45.714Z,97129.25
2018-11-06T13:58:15.541Z,97131.41
2018-11-06T14:00:45.443Z,97124.09
2018-11-06T14:03:15.245Z,97125.69
2018-11-06T14:05:45.128Z,97129.25
2018-11-06T14:08:15.046Z,97133.20
2018-11-06T14:10:44.943Z,97131.84
2018-11-06T14:13:15.366Z,97133.53
2018-11-06T14:15:45.167Z,97136.19
2018-11-06T14:18:15.019Z,97137.41
2018-11-06T14:20:44.919Z,97140.95
2018-11-06T14:23:16.175Z,97148.41
2018-11-06T14:25:46.054Z,97145.20
2018-11-06T14:28:15.895Z,97149.23
2018-11-06T14:30:46.050Z,97145.58
2018-11-06T14:33:15.756Z,97148.91
2018-11-06T14:35:45.582Z,97150.73
2018-11-06T14:38:17.007Z,97148.95
2018-11-06T14:40:47.025Z,97153.47
2018-11-06T14:43:16.772Z,97150.05
2018-11-06T14:45:46.625Z,97147.23
2018-11-06T14:48:16.479Z,97152.29
2018-11-06T14:50:46.255Z,97154.80
2018-11-06T14:56:10.601Z,97155.50
2018-11-06T14:58:40.563Z,97160.66
2018-11-06T15:01:10.584Z,97155.11
2018-11-06T15:03:40.665Z,97159.91
2018-11-06T15:06:10.506Z,97161.27
2018-11-06T15:08:40.320Z,97156.39
2018-11-06T15:11:10.674Z,97153.20
2018-11-06T15:13:40.420Z,97151.14
2018-11-06T15:16:10.345Z,97157.97
2018-11-06T15:18:41.649Z,97153.41
2018-11-06T15:21:11.575Z,97163.23
2018-11-06T15:23:41.369Z,97162.44
2018-11-06T15:26:11.259Z,97160.13
2018-11-06T15:28:41.160Z,97160.87
2018-11-06T15:31:11.106Z,97165.47
2018-11-06T15:33:41.298Z,97172.41
2018-11-06T15:36:11.122Z,97170.81
2018-11-06T15:38:42.028Z,97174.42
2018-11-06T15:41:12.232Z,97177.42
2018-11-06T15:43:42.064Z,97177.56
2018-11-06T15:46:12.190Z,97186.30
2018-11-06T15:48:42.915Z,97175.38
2018-11-06T15:51:12.736Z,97179.61
2018-11-06T15:53:43.354Z,97179.02
2018-11-06T15:56:29.924Z,97191.05
2018-11-06T15:58:59.811Z,97197.67
2018-11-06T16:01:29.617Z,97203.44
2018-11-06T16:03:59.446Z,97210.47
2018-11-06T16:06:29.733Z,97219.76
2018-11-06T16:08:59.643Z,97219.76
2018-11-06T16:11:29.550Z,97225.58
2018-11-06T16:14:00.114Z,97234.66
2018-11-06T16:16:30.304Z,97248.23
2018-11-06T16:19:01.227Z,97262.73
2018-11-06T16:21:32.328Z,97270.84
2018-11-06T16:24:02.628Z,97286.91
2018-11-06T16:26:35.140Z,97306.08
2018-11-06T16:29:13.840Z,97341.17
2018-11-06T16:31:43.750Z,97337.88
2018-11-06T16:34:13.889Z,97338.98
2018-11-06T16:36:43.704Z,97341.45
2018-11-06T16:39:13.762Z,97352.64
2018-11-06T16:41:49.931Z,97351.45
2018-11-06T16:44:20.011Z,97352.56
2018-11-06T16:46:49.889Z,97354.30
2018-11-06T16:49:19.882Z,97359.32
2018-11-06T16:51:50.233Z,97347.50
2018-11-06T16:54:20.219Z,97354.50
2018-11-06T16:59:57.864Z,97365.86
2018-11-06T17:02:27.699Z,97368.29
2018-11-06T17:04:58.381Z,97374.62
2018-11-06T17:07:28.295Z,97377.48
2018-11-06T17:09:58.209Z,97375.84
2018-11-06T17:12:28.464Z,97394.41
2018-11-06T17:14:58.498Z,97404.14
2018-11-06T17:17:29.282Z,97403.42
2018-11-06T17:20:02.760Z,97417.34
2018-11-06T17:22:34.239Z,97419.91
2018-11-06T17:25:05.328Z,97420.72
2018-11-06T17:27:35.827Z,97420.55
2018-11-06T17:30:09.167Z,97425.73
2018-11-06T17:32:39.808Z,97432.41
2018-11-06T17:35:12.098Z,97434.66
2018-11-06T17:37:46.191Z,97433.96
2018-11-06T17:40:25.213Z,97437.76
2018-11-06T17:42:56.057Z,97451.68
2018-11-06T17:45:26.065Z,97447.83
2018-11-06T17:47:56.403Z,97449.86
2018-11-06T17:50:27.396Z,97446.63
2018-11-06T17:52:57.600Z,97437.49
2018-11-06T17:55:32.544Z,97448.16
2018-11-06T17:58:02.932Z,97453.41
2018-11-06T18:00:33.833Z,97464.94
2018-11-06T18:03:04.554Z,97469.20
2018-11-06T18:05:35.094Z,97477.52
2018-11-06T18:08:04.995Z,97477.30
2018-11-06T18:10:35.090Z,97482.62
2018-11-06T18:13:05.325Z,97489.28
2018-11-06T18:15:51.255Z,97493.30
2018-11-06T18:18:21.163Z,97499.83
2018-11-06T18:20:51.036Z,97498.40
2018-11-06T18:23:22.077Z,97505.44
2018-11-06T18:25:52.049Z,97509.52
2018-11-06T18:28:21.706Z,97513.69
2018-11-06T18:33:46.868Z,97517.64
2018-11-06T18:36:16.745Z,97524.93
2018-11-06T18:38:46.643Z,97521.63
2018-11-06T18:41:17.744Z,97513.84
2018-11-06T18:43:47.896Z,97525.60
2018-11-06T18:46:18.093Z,97528.98
2018-11-06T18:49:06.820Z,97528.68
2018-11-06T18:51:40.462Z,97534.04
2018-11-06T18:54:10.961Z,97523.23
2018-11-06T18:56:42.248Z,97526.66
2018-11-06T19:02:10.166Z,97531.26
2018-11-06T19:04:41.113Z,97530.63
2018-11-06T19:07:11.194Z,97537.97
2018-11-06T19:10:17.269Z,97540.25
2018-11-06T19:12:48.145Z,97533.88
2018-11-06T19:15:29.521Z,97528.98
2018-11-06T19:21:04.737Z,97527.05
2018-11-06T19:23:44.068Z,97522.82
2018-11-06T19:26:14.236Z,97534.90
2018-11-06T19:28:44.342Z,97533.37
2018-11-06T19:31:14.782Z,97537.41
2018-11-06T19:33:44.752Z,97534.47
2018-11-06T19:36:31.757Z,97525.79
2018-11-06T19:39:01.707Z,97530.17
2018-11-06T19:41:36.253Z,97537.03
2018-11-06T19:46:48.150Z,97553.56
2018-11-06T19:49:18.266Z,97564.61
2018-11-06T19:51:48.337Z,97572.04
2018-11-06T19:54:19.135Z,97576.52
2018-11-06T19:56:58.186Z,97576.72
2018-11-06T19:59:30.870Z,97574.63
2018-11-06T20:06:52.702Z,97584.05
2018-11-06T20:09:23.696Z,97584.17
2018-11-06T20:11:55.169Z,97580.19
2018-11-06T20:14:25.135Z,97591.12
2018-11-06T20:16:55.665Z,97603.51
2018-11-06T20:19:29.253Z,97607.28
2018-11-06T20:21:59.257Z,97604.02
2018-11-06T20:24:29.614Z,97605.97
2018-11-06T20:26:59.986Z,97601.34
2018-11-06T20:29:30.481Z,97592.74
2018-11-06T20:32:02.985Z,97601.69
2018-11-06T20:34:43.045Z,97599.30
2018-11-06T20:37:14.875Z,97596.59
2018-11-06T20:39:49.786Z,97593.45
2018-11-06T20:42:20.936Z,97588.34
2018-11-06T20:44:51.190Z,97587.84
2018-11-06T20:47:25.798Z,97593.91
2018-11-06T20:49:56.457Z,97594.48
2018-11-06T20:52:26.268Z,97600.66
2018-11-06T20:54:56.582Z,97609.67
2018-11-06T20:57:26.712Z,97600.73
2018-11-06T20:59:57.300Z,97580.17
2018-11-06T21:02:27.059Z,97589.66
2018-11-06T21:04:58.696Z,97597.28
2018-11-06T21:07:28.715Z,97593.40
2018-11-06T21:09:58.588Z,97592.17
2018-11-06T21:12:30.244Z,97596.66
2018-11-06T21:15:00.193Z,97598.34
2018-11-06T21:17:30.108Z,97605.41
2018-11-06T21:20:00.425Z,97611.54
2018-11-06T21:22:30.719Z,97624.88
2018-11-06T21:25:00.933Z,97624.03
2018-11-06T21:27:32.099Z,97613.49
2018-11-06T21:30:01.912Z,97612.02
2018-11-06T21:32:34.251Z,97611.19
2018-11-06T21:35:07.103Z,97608.58
2018-11-06T21:37:37.399Z,97612.10
2018-11-06T21:40:13.460Z,97613.14
2018-11-06T21:42:45.752Z,97609.23
2018-11-06T21:45:16.370Z,97605.97
2018-11-06T21:47:53.221Z,97607.57
2018-11-06T21:50:24.439Z,97602.89
2018-11-06T21:52:54.734Z,97598.82
2018-11-06T21:55:25.173Z,97599.38
2018-11-06T21:57:55.473Z,97597.61
2018-11-06T22:00:25.413Z,97596.02
2018-11-06T22:02:55.512Z,97601.80
2018-11-06T22:05:25.931Z,97603.64
2018-11-06T22:07:55.756Z,97603.83
2018-11-06T22:10:25.915Z,97612.28
2018-11-06T22:12:55.963Z,97613.88
2018-11-06T22:15:27.025Z,97616.59
2018-11-06T22:17:56.854Z,97617.89
2018-11-06T22:20:26.863Z,97623.91
2018-11-06T22:22:57.084Z,97625.59
2018-11-06T22:25:27.665Z,97622.25
2018-11-06T22:27:57.655Z,97622.44
2018-11-06T22:30:29.842Z,97623.55
2018-11-06T22:33:01.128Z,97624.09
2018-11-06T22:35:31.726Z,97621.41
2018-11-06T22:38:02.495Z,97618.62
2018-11-06T22:40:32.456Z,97619.45
2018-11-06T22:43:04.026Z,97618.53
2018-11-06T22:45:34.237Z,97631.34
2018-11-06T22:48:04.271Z,97632.66
2018-11-06T22:50:34.511Z,97629.64
2018-11-06T22:53:05.136Z,97631.33
2018-11-06T22:55:34.971Z,97625.17
2018-11-06T22:58:05.111Z,97625.17
2018-11-06T23:00:40.243Z,97627.21
2018-11-06T23:03:13.419Z,97625.00
2018-11-06T23:05:43.976Z,97625.91
2018-11-06T23:08:18.756Z,97625.14
2018-11-06T23:10:48.552Z,97631.58
2018-11-06T23:13:18.720Z,97629.99
2018-11-06T23:15:48.531Z,97620.50
2018-11-06T23:18:18.404Z,97615.64
2018-11-06T23:20:48.182Z,97618.25
2018-11-06T23:23:17.961Z,97620.50
2018-11-06T23:25:47.735Z,97618.45
2018-11-06T23:28:17.894Z,97616.34
2018-11-06T23:30:47.772Z,97614.09
2018-11-06T23:33:18.378Z,97615.29
2018-11-06T23:35:48.204Z,97621.63
2018-11-06T23:38:18.271Z,97616.88
2018-11-06T23:40:48.088Z,97617.64
2018-11-06T23:43:17.900Z,97627.84
2018-11-06T23:45:47.778Z,97619.02
2018-11-06T23:48:17.965Z,97627.00
2018-11-06T23:50:47.762Z,97629.78
2018-11-06T23:53:17.648Z,97636.19
2018-11-06T23:55:47.512Z,97634.81
2018-11-06T23:58:17.331Z,97638.16
